sensor_id;sensor_type;location;lat;lon;timestamp;P1;durP1;ratioP1;P2;durP2;ratioP2
56629;SDS011;42502;40.732;-74.254;2022-08-24T00:01:19;0.80;;;0.80;;
56629;SDS011;42502;40.732;-74.254;2022-08-24T00:03:21;0.80;;;0.70;;
56629;SDS011;42502;40.732;-74.254;2022-08-24T00:05:22;0.70;;;0.70;;
56629;SDS011;42502;40.732;-74.254;2022-08-24T00:07:23;1.02;;;0.73;;
56629;SDS011;42502;40.732;-74.254;2022-08-24T00:09:24;0.80;;;0.80;;
56629;SDS011;42502;40.732;-74.254;2022-08-24T00:11:25;0.63;;;0.63;;
56629;SDS011;42502;40.732;-74.254;2022-08-24T00:13:26;0.70;;;0.70;;
56629;SDS011;42502;40.732;-74.254;2022-08-24T00:15:28;0.80;;;0.80;;
56629;SDS011;42502;40.732;-74.254;2022-08-24T00:17:28;0.70;;;0.70;;
56629;SDS011;42502;40.732;-74.254;2022-08-24T00:19:29;1.58;;;0.80;;
56629;SDS011;42502;40.732;-74.254;2022-08-24T00:21:30;0.88;;;0.70;;
56629;SDS011;42502;40.732;-74.254;2022-08-24T00:23:31;0.93;;;0.73;;
56629;SDS011;42502;40.732;-74.254;2022-08-24T00:25:32;0.80;;;0.77;;
56629;SDS011;42502;40.732;-74.254;2022-08-24T00:27:33;0.77;;;0.70;;
56629;SDS011;42502;40.732;-74.254;2022-08-24T00:29:36;0.70;;;0.70;;
56629;SDS011;42502;40.732;-74.254;2022-08-24T00:31:37;0.70;;;0.70;;
56629;SDS011;42502;40.732;-74.254;2022-08-24T00:33:38;0.60;;;0.60;;
56629;SDS011;42502;40.732;-74.254;2022-08-24T00:35:40;0.90;;;0.73;;
56629;SDS011;42502;40.732;-74.254;2022-08-24T00:37:41;0.68;;;0.60;;
56629;SDS011;42502;40.732;-74.254;2022-08-24T00:39:42;0.70;;;0.60;;
56629;SDS011;42502;40.732;-74.254;2022-08-24T00:41:46;0.90;;;0.80;;
56629;SDS011;42502;40.732;-74.254;2022-08-24T00:43:56;0.70;;;0.70;;
56629;SDS011;42502;40.732;-74.254;2022-08-24T00:46:36;1.85;;;0.80;;
56629;SDS011;42502;40.732;-74.254;2022-08-24T00:48:29;0.88;;;0.80;;
56629;SDS011;42502;40.732;-74.254;2022-08-24T00:50:36;0.70;;;0.70;;
56629;SDS011;42502;40.732;-74.254;2022-08-24T00:52:44;1.42;;;0.70;;
56629;SDS011;42502;40.732;-74.254;2022-08-24T00:54:50;1.55;;;0.90;;
56629;SDS011;42502;40.732;-74.254;2022-08-24T00:57:02;0.80;;;0.68;;
56629;SDS011;42502;40.732;-74.254;2022-08-24T00:59:08;0.68;;;0.68;;
56629;SDS011;42502;40.732;-74.254;2022-08-24T01:01:12;0.65;;;0.65;;
56629;SDS011;42502;40.732;-74.254;2022-08-24T01:03:14;1.77;;;0.90;;
56629;SDS011;42502;40.732;-74.254;2022-08-24T01:05:18;1.98;;;0.80;;
56629;SDS011;42502;40.732;-74.254;2022-08-24T01:07:23;0.75;;;0.75;;
56629;SDS011;42502;40.732;-74.254;2022-08-24T01:09:25;1.60;;;0.80;;
56629;SDS011;42502;40.732;-74.254;2022-08-24T01:11:27;1.00;;;0.70;;
56629;SDS011;42502;40.732;-74.254;2022-08-24T01:13:30;1.85;;;0.88;;
56629;SDS011;42502;40.732;-74.254;2022-08-24T01:15:33;0.80;;;0.70;;
56629;SDS011;42502;40.732;-74.254;2022-08-24T01:17:37;0.88;;;0.70;;
56629;SDS011;42502;40.732;-74.254;2022-08-24T01:19:57;1.17;;;0.75;;
56629;SDS011;42502;40.732;-74.254;2022-08-24T01:24:20;1.30;;;0.90;;
56629;SDS011;42502;40.732;-74.254;2022-08-24T01:27:03;0.80;;;0.77;;
56629;SDS011;42502;40.732;-74.254;2022-08-24T01:28:47;1.88;;;0.82;;
56629;SDS011;42502;40.732;-74.254;2022-08-24T01:30:52;1.40;;;0.70;;
56629;SDS011;42502;40.732;-74.254;2022-08-24T01:32:57;1.63;;;0.80;;
56629;SDS011;42502;40.732;-74.254;2022-08-24T01:35:00;1.05;;;0.80;;
56629;SDS011;42502;40.732;-74.254;2022-08-24T01:37:01;1.17;;;0.80;;
56629;SDS011;42502;40.732;-74.254;2022-08-24T01:39:05;1.33;;;1.00;;
56629;SDS011;42502;40.732;-74.254;2022-08-24T01:41:11;1.00;;;0.70;;
56629;SDS011;42502;40.732;-74.254;2022-08-24T01:43:12;1.05;;;0.70;;
56629;SDS011;42502;40.732;-74.254;2022-08-24T01:45:14;1.67;;;0.70;;
56629;SDS011;42502;40.732;-74.254;2022-08-24T01:47:15;2.00;;;0.75;;
56629;SDS011;42502;40.732;-74.254;2022-08-24T01:49:16;1.38;;;0.80;;
56629;SDS011;42502;40.732;-74.254;2022-08-24T01:51:17;2.30;;;0.90;;
56629;SDS011;42502;40.732;-74.254;2022-08-24T01:53:20;2.35;;;0.80;;
56629;SDS011;42502;40.732;-74.254;2022-08-24T01:55:20;1.50;;;0.88;;
56629;SDS011;42502;40.732;-74.254;2022-08-24T01:57:25;2.00;;;0.75;;
56629;SDS011;42502;40.732;-74.254;2022-08-24T01:59:26;0.88;;;0.70;;
56629;SDS011;42502;40.732;-74.254;2022-08-24T02:01:28;1.50;;;0.90;;
56629;SDS011;42502;40.732;-74.254;2022-08-24T02:03:32;1.95;;;0.73;;
56629;SDS011;42502;40.732;-74.254;2022-08-24T02:05:33;1.73;;;0.80;;
56629;SDS011;42502;40.732;-74.254;2022-08-24T02:07:35;2.85;;;0.70;;
56629;SDS011;42502;40.732;-74.254;2022-08-24T02:09:36;5.63;;;1.05;;
56629;SDS011;42502;40.732;-74.254;2022-08-24T02:11:37;1.52;;;0.80;;
56629;SDS011;42502;40.732;-74.254;2022-08-24T02:13:39;3.58;;;1.20;;
56629;SDS011;42502;40.732;-74.254;2022-08-24T02:15:41;1.10;;;0.90;;
56629;SDS011;42502;40.732;-74.254;2022-08-24T02:17:42;1.92;;;0.90;;
56629;SDS011;42502;40.732;-74.254;2022-08-24T02:19:43;2.05;;;0.77;;
56629;SDS011;42502;40.732;-74.254;2022-08-24T02:21:44;3.20;;;0.80;;
56629;SDS011;42502;40.732;-74.254;2022-08-24T02:23:45;1.27;;;0.82;;
56629;SDS011;42502;40.732;-74.254;2022-08-24T02:25:46;1.10;;;0.85;;
56629;SDS011;42502;40.732;-74.254;2022-08-24T02:27:48;2.55;;;0.90;;
56629;SDS011;42502;40.732;-74.254;2022-08-24T02:29:49;3.25;;;0.80;;
56629;SDS011;42502;40.732;-74.254;2022-08-24T02:31:50;2.35;;;0.80;;
56629;SDS011;42502;40.732;-74.254;2022-08-24T02:33:51;3.13;;;1.00;;
56629;SDS011;42502;40.732;-74.254;2022-08-24T02:35:51;2.33;;;0.80;;
56629;SDS011;42502;40.732;-74.254;2022-08-24T02:37:53;2.35;;;1.05;;
56629;SDS011;42502;40.732;-74.254;2022-08-24T02:39:54;2.05;;;0.80;;
56629;SDS011;42502;40.732;-74.254;2022-08-24T02:41:55;2.05;;;0.90;;
56629;SDS011;42502;40.732;-74.254;2022-08-24T02:43:57;1.40;;;0.73;;
56629;SDS011;42502;40.732;-74.254;2022-08-24T02:45:58;1.95;;;0.77;;
56629;SDS011;42502;40.732;-74.254;2022-08-24T02:47:59;2.10;;;1.00;;
56629;SDS011;42502;40.732;-74.254;2022-08-24T02:50:01;2.72;;;0.90;;
56629;SDS011;42502;40.732;-74.254;2022-08-24T02:52:03;4.70;;;0.80;;
56629;SDS011;42502;40.732;-74.254;2022-08-24T02:54:04;1.35;;;0.80;;
56629;SDS011;42502;40.732;-74.254;2022-08-24T02:56:05;1.00;;;0.90;;
56629;SDS011;42502;40.732;-74.254;2022-08-24T02:58:07;2.08;;;0.82;;
56629;SDS011;42502;40.732;-74.254;2022-08-24T03:00:10;1.30;;;0.70;;
56629;SDS011;42502;40.732;-74.254;2022-08-24T03:02:13;2.55;;;0.90;;
56629;SDS011;42502;40.732;-74.254;2022-08-24T03:04:14;3.15;;;0.90;;
56629;SDS011;42502;40.732;-74.254;2022-08-24T03:06:14;1.27;;;0.80;;
56629;SDS011;42502;40.732;-74.254;2022-08-24T03:08:15;2.88;;;0.90;;
56629;SDS011;42502;40.732;-74.254;2022-08-24T03:10:17;1.27;;;0.73;;
56629;SDS011;42502;40.732;-74.254;2022-08-24T03:12:18;2.25;;;0.90;;
56629;SDS011;42502;40.732;-74.254;2022-08-24T03:14:18;1.92;;;0.90;;
56629;SDS011;42502;40.732;-74.254;2022-08-24T03:16:19;1.67;;;0.80;;
56629;SDS011;42502;40.732;-74.254;2022-08-24T03:18:21;1.70;;;0.73;;
56629;SDS011;42502;40.732;-74.254;2022-08-24T03:20:22;1.45;;;0.73;;
56629;SDS011;42502;40.732;-74.254;2022-08-24T03:22:23;1.77;;;0.70;;
56629;SDS011;42502;40.732;-74.254;2022-08-24T03:24:24;1.40;;;0.70;;
56629;SDS011;42502;40.732;-74.254;2022-08-24T03:26:25;1.90;;;0.80;;
56629;SDS011;42502;40.732;-74.254;2022-08-24T03:28:25;3.38;;;0.80;;
56629;SDS011;42502;40.732;-74.254;2022-08-24T03:30:27;1.33;;;0.85;;
56629;SDS011;42502;40.732;-74.254;2022-08-24T03:32:28;1.88;;;0.90;;
56629;SDS011;42502;40.732;-74.254;2022-08-24T03:34:28;1.58;;;0.73;;
56629;SDS011;42502;40.732;-74.254;2022-08-24T03:36:29;1.92;;;0.80;;
56629;SDS011;42502;40.732;-74.254;2022-08-24T03:38:30;0.70;;;0.70;;
56629;SDS011;42502;40.732;-74.254;2022-08-24T03:40:31;3.75;;;0.90;;
56629;SDS011;42502;40.732;-74.254;2022-08-24T03:42:32;0.95;;;0.70;;
56629;SDS011;42502;40.732;-74.254;2022-08-24T03:44:33;1.05;;;0.73;;
56629;SDS011;42502;40.732;-74.254;2022-08-24T03:46:34;2.45;;;1.00;;
56629;SDS011;42502;40.732;-74.254;2022-08-24T03:48:36;1.85;;;0.80;;
56629;SDS011;42502;40.732;-74.254;2022-08-24T03:50:39;0.90;;;0.80;;
56629;SDS011;42502;40.732;-74.254;2022-08-24T03:52:40;1.40;;;0.70;;
56629;SDS011;42502;40.732;-74.254;2022-08-24T03:54:41;1.55;;;0.70;;
56629;SDS011;42502;40.732;-74.254;2022-08-24T03:56:42;1.00;;;0.80;;
56629;SDS011;42502;40.732;-74.254;2022-08-24T03:58:42;1.75;;;0.82;;
56629;SDS011;42502;40.732;-74.254;2022-08-24T04:00:43;1.80;;;0.80;;
56629;SDS011;42502;40.732;-74.254;2022-08-24T04:02:44;1.00;;;0.70;;
56629;SDS011;42502;40.732;-74.254;2022-08-24T04:04:45;0.73;;;0.70;;
56629;SDS011;42502;40.732;-74.254;2022-08-24T04:06:46;4.10;;;0.82;;
56629;SDS011;42502;40.732;-74.254;2022-08-24T04:08:47;2.53;;;0.85;;
56629;SDS011;42502;40.732;-74.254;2022-08-24T04:10:49;2.78;;;0.80;;
56629;SDS011;42502;40.732;-74.254;2022-08-24T04:51:10;2.85;;;0.80;;
56629;SDS011;42502;40.732;-74.254;2022-08-24T04:53:13;2.35;;;0.77;;
56629;SDS011;42502;40.732;-74.254;2022-08-24T04:55:15;2.63;;;0.82;;
56629;SDS011;42502;40.732;-74.254;2022-08-24T04:57:16;1.08;;;0.65;;
56629;SDS011;42502;40.732;-74.254;2022-08-24T04:59:17;3.60;;;0.90;;
56629;SDS011;42502;40.732;-74.254;2022-08-24T05:01:19;2.58;;;0.90;;
56629;SDS011;42502;40.732;-74.254;2022-08-24T05:03:22;1.23;;;0.80;;
56629;SDS011;42502;40.732;-74.254;2022-08-24T05:05:22;3.65;;;1.15;;
56629;SDS011;42502;40.732;-74.254;2022-08-24T05:07:23;1.80;;;0.80;;
56629;SDS011;42502;40.732;-74.254;2022-08-24T05:09:25;1.75;;;0.80;;
56629;SDS011;42502;40.732;-74.254;2022-08-24T05:11:25;2.20;;;0.90;;
56629;SDS011;42502;40.732;-74.254;2022-08-24T05:13:26;1.98;;;0.85;;
56629;SDS011;42502;40.732;-74.254;2022-08-24T05:15:27;2.00;;;0.70;;
56629;SDS011;42502;40.732;-74.254;2022-08-24T05:17:27;1.50;;;0.70;;
56629;SDS011;42502;40.732;-74.254;2022-08-24T05:19:28;1.35;;;0.70;;
56629;SDS011;42502;40.732;-74.254;2022-08-24T05:21:29;1.77;;;0.60;;
56629;SDS011;42502;40.732;-74.254;2022-08-24T05:23:30;1.90;;;0.80;;
56629;SDS011;42502;40.732;-74.254;2022-08-24T05:25:30;1.25;;;0.80;;
56629;SDS011;42502;40.732;-74.254;2022-08-24T05:27:32;2.90;;;0.80;;
56629;SDS011;42502;40.732;-74.254;2022-08-24T05:29:33;0.98;;;0.60;;
56629;SDS011;42502;40.732;-74.254;2022-08-24T05:31:35;1.30;;;0.60;;
56629;SDS011;42502;40.732;-74.254;2022-08-24T05:33:36;1.17;;;0.75;;
56629;SDS011;42502;40.732;-74.254;2022-08-24T05:35:37;1.25;;;0.60;;
56629;SDS011;42502;40.732;-74.254;2022-08-24T05:37:39;1.55;;;0.75;;
56629;SDS011;42502;40.732;-74.254;2022-08-24T05:39:42;1.30;;;0.80;;
56629;SDS011;42502;40.732;-74.254;2022-08-24T05:41:43;1.60;;;0.60;;
56629;SDS011;42502;40.732;-74.254;2022-08-24T05:43:45;2.08;;;0.77;;
56629;SDS011;42502;40.732;-74.254;2022-08-24T05:45:46;2.08;;;0.77;;
56629;SDS011;42502;40.732;-74.254;2022-08-24T05:47:47;1.02;;;0.60;;
56629;SDS011;42502;40.732;-74.254;2022-08-24T05:49:48;1.45;;;0.60;;
56629;SDS011;42502;40.732;-74.254;2022-08-24T05:51:52;3.22;;;0.70;;
56629;SDS011;42502;40.732;-74.254;2022-08-24T05:53:53;1.40;;;0.70;;
56629;SDS011;42502;40.732;-74.254;2022-08-24T05:55:53;1.42;;;0.55;;
56629;SDS011;42502;40.732;-74.254;2022-08-24T05:57:54;0.90;;;0.57;;
56629;SDS011;42502;40.732;-74.254;2022-08-24T05:59:55;1.00;;;0.55;;
56629;SDS011;42502;40.732;-74.254;2022-08-24T06:01:56;1.33;;;0.70;;
56629;SDS011;42502;40.732;-74.254;2022-08-24T06:03:57;1.35;;;0.70;;
56629;SDS011;42502;40.732;-74.254;2022-08-24T06:06:00;0.60;;;0.50;;
56629;SDS011;42502;40.732;-74.254;2022-08-24T06:08:02;1.15;;;0.73;;
56629;SDS011;42502;40.732;-74.254;2022-08-24T06:10:03;1.13;;;0.60;;
56629;SDS011;42502;40.732;-74.254;2022-08-24T06:12:04;1.05;;;0.60;;
56629;SDS011;42502;40.732;-74.254;2022-08-24T06:14:12;1.10;;;0.50;;
56629;SDS011;42502;40.732;-74.254;2022-08-24T06:16:14;1.75;;;0.60;;
56629;SDS011;42502;40.732;-74.254;2022-08-24T06:18:15;0.75;;;0.50;;
56629;SDS011;42502;40.732;-74.254;2022-08-24T06:20:16;1.65;;;0.60;;
56629;SDS011;42502;40.732;-74.254;2022-08-24T06:22:17;0.70;;;0.60;;
56629;SDS011;42502;40.732;-74.254;2022-08-24T06:24:18;0.68;;;0.60;;
56629;SDS011;42502;40.732;-74.254;2022-08-24T06:26:39;0.90;;;0.70;;
56629;SDS011;42502;40.732;-74.254;2022-08-24T06:28:58;0.93;;;0.55;;
56629;SDS011;42502;40.732;-74.254;2022-08-24T06:31:03;1.40;;;0.55;;
56629;SDS011;42502;40.732;-74.254;2022-08-24T06:33:06;1.55;;;0.60;;
56629;SDS011;42502;40.732;-74.254;2022-08-24T06:35:07;1.20;;;0.50;;
56629;SDS011;42502;40.732;-74.254;2022-08-24T06:37:08;0.95;;;0.60;;
56629;SDS011;42502;40.732;-74.254;2022-08-24T06:39:09;0.82;;;0.60;;
56629;SDS011;42502;40.732;-74.254;2022-08-24T06:41:10;1.10;;;0.50;;
56629;SDS011;42502;40.732;-74.254;2022-08-24T06:43:11;0.60;;;0.57;;
56629;SDS011;42502;40.732;-74.254;2022-08-24T06:45:12;0.85;;;0.60;;
56629;SDS011;42502;40.732;-74.254;2022-08-24T06:47:13;0.70;;;0.50;;
56629;SDS011;42502;40.732;-74.254;2022-08-24T06:49:14;1.38;;;0.63;;
56629;SDS011;42502;40.732;-74.254;2022-08-24T06:51:16;0.43;;;0.40;;
56629;SDS011;42502;40.732;-74.254;2022-08-24T06:53:18;2.97;;;0.43;;
56629;SDS011;42502;40.732;-74.254;2022-08-24T06:55:20;0.73;;;0.60;;
56629;SDS011;42502;40.732;-74.254;2022-08-24T06:57:21;0.55;;;0.50;;
56629;SDS011;42502;40.732;-74.254;2022-08-24T06:59:21;0.65;;;0.50;;
56629;SDS011;42502;40.732;-74.254;2022-08-24T07:01:24;0.88;;;0.50;;
56629;SDS011;42502;40.732;-74.254;2022-08-24T07:03:27;0.73;;;0.60;;
56629;SDS011;42502;40.732;-74.254;2022-08-24T07:05:28;0.70;;;0.50;;
56629;SDS011;42502;40.732;-74.254;2022-08-24T07:07:28;0.50;;;0.50;;
56629;SDS011;42502;40.732;-74.254;2022-08-24T07:09:30;0.70;;;0.60;;
56629;SDS011;42502;40.732;-74.254;2022-08-24T07:11:31;0.47;;;0.40;;
56629;SDS011;42502;40.732;-74.254;2022-08-24T07:13:34;0.60;;;0.40;;
56629;SDS011;42502;40.732;-74.254;2022-08-24T07:15:35;0.40;;;0.40;;
56629;SDS011;42502;40.732;-74.254;2022-08-24T07:17:36;0.60;;;0.50;;
56629;SDS011;42502;40.732;-74.254;2022-08-24T07:19:37;0.40;;;0.40;;
56629;SDS011;42502;40.732;-74.254;2022-08-24T07:21:37;0.63;;;0.50;;
56629;SDS011;42502;40.732;-74.254;2022-08-24T07:23:38;1.98;;;0.50;;
56629;SDS011;42502;40.732;-74.254;2022-08-24T07:25:39;0.50;;;0.50;;
56629;SDS011;42502;40.732;-74.254;2022-08-24T07:27:41;0.98;;;0.60;;
56629;SDS011;42502;40.732;-74.254;2022-08-24T07:29:42;0.98;;;0.47;;
56629;SDS011;42502;40.732;-74.254;2022-08-24T07:31:43;0.98;;;0.47;;
56629;SDS011;42502;40.732;-74.254;2022-08-24T07:33:45;0.70;;;0.57;;
56629;SDS011;42502;40.732;-74.254;2022-08-24T07:35:46;0.45;;;0.45;;
56629;SDS011;42502;40.732;-74.254;2022-08-24T07:37:47;0.65;;;0.50;;
56629;SDS011;42502;40.732;-74.254;2022-08-24T07:39:50;1.83;;;0.50;;
56629;SDS011;42502;40.732;-74.254;2022-08-24T07:41:51;0.40;;;0.40;;
56629;SDS011;42502;40.732;-74.254;2022-08-24T07:43:52;0.47;;;0.47;;
56629;SDS011;42502;40.732;-74.254;2022-08-24T07:45:55;0.40;;;0.40;;
56629;SDS011;42502;40.732;-74.254;2022-08-24T07:47:56;0.47;;;0.47;;
56629;SDS011;42502;40.732;-74.254;2022-08-24T07:49:56;0.95;;;0.50;;
56629;SDS011;42502;40.732;-74.254;2022-08-24T07:51:57;0.40;;;0.40;;
56629;SDS011;42502;40.732;-74.254;2022-08-24T07:53:58;0.50;;;0.50;;
56629;SDS011;42502;40.732;-74.254;2022-08-24T07:56:01;1.05;;;0.40;;
56629;SDS011;42502;40.732;-74.254;2022-08-24T07:58:02;0.52;;;0.50;;
56629;SDS011;42502;40.732;-74.254;2022-08-24T08:00:04;0.57;;;0.40;;
56629;SDS011;42502;40.732;-74.254;2022-08-24T08:02:07;1.88;;;0.52;;
56629;SDS011;42502;40.732;-74.254;2022-08-24T08:04:10;0.60;;;0.50;;
56629;SDS011;42502;40.732;-74.254;2022-08-24T08:06:14;0.55;;;0.50;;
56629;SDS011;42502;40.732;-74.254;2022-08-24T08:08:21;0.93;;;0.50;;
56629;SDS011;42502;40.732;-74.254;2022-08-24T08:10:22;0.45;;;0.40;;
56629;SDS011;42502;40.732;-74.254;2022-08-24T08:12:23;0.40;;;0.40;;
56629;SDS011;42502;40.732;-74.254;2022-08-24T08:14:24;0.85;;;0.40;;
56629;SDS011;42502;40.732;-74.254;2022-08-24T08:16:24;0.50;;;0.40;;
56629;SDS011;42502;40.732;-74.254;2022-08-24T08:18:26;0.55;;;0.50;;
56629;SDS011;42502;40.732;-74.254;2022-08-24T08:20:27;0.52;;;0.52;;
56629;SDS011;42502;40.732;-74.254;2022-08-24T08:22:28;0.80;;;0.40;;
56629;SDS011;42502;40.732;-74.254;2022-08-24T08:24:47;0.40;;;0.40;;
56629;SDS011;42502;40.732;-74.254;2022-08-24T08:26:48;0.50;;;0.50;;
56629;SDS011;42502;40.732;-74.254;2022-08-24T08:28:53;0.73;;;0.40;;
56629;SDS011;42502;40.732;-74.254;2022-08-24T08:30:54;0.90;;;0.50;;
56629;SDS011;42502;40.732;-74.254;2022-08-24T08:32:54;0.68;;;0.47;;
56629;SDS011;42502;40.732;-74.254;2022-08-24T08:34:55;0.98;;;0.40;;
56629;SDS011;42502;40.732;-74.254;2022-08-24T08:36:56;0.40;;;0.40;;
56629;SDS011;42502;40.732;-74.254;2022-08-24T08:38:58;0.45;;;0.45;;
56629;SDS011;42502;40.732;-74.254;2022-08-24T08:43:45;1.30;;;0.40;;
56629;SDS011;42502;40.732;-74.254;2022-08-24T09:10:08;0.80;;;0.45;;
56629;SDS011;42502;40.732;-74.254;2022-08-24T09:12:22;0.50;;;0.40;;
56629;SDS011;42502;40.732;-74.254;2022-08-24T09:26:36;0.82;;;0.40;;
56629;SDS011;42502;40.732;-74.254;2022-08-24T09:29:11;2.22;;;0.60;;
56629;SDS011;42502;40.732;-74.254;2022-08-24T09:31:25;0.40;;;0.40;;
56629;SDS011;42502;40.732;-74.254;2022-08-24T09:33:48;0.40;;;0.40;;
56629;SDS011;42502;40.732;-74.254;2022-08-24T09:36:05;0.88;;;0.50;;
56629;SDS011;42502;40.732;-74.254;2022-08-24T09:52:12;0.52;;;0.40;;
56629;SDS011;42502;40.732;-74.254;2022-08-24T09:54:23;0.43;;;0.43;;
56629;SDS011;42502;40.732;-74.254;2022-08-24T09:56:55;0.75;;;0.50;;
56629;SDS011;42502;40.732;-74.254;2022-08-24T09:59:19;0.40;;;0.40;;
56629;SDS011;42502;40.732;-74.254;2022-08-24T10:01:38;0.40;;;0.40;;
56629;SDS011;42502;40.732;-74.254;2022-08-24T10:06:21;1.20;;;0.32;;
56629;SDS011;42502;40.732;-74.254;2022-08-24T10:13:48;0.47;;;0.40;;
56629;SDS011;42502;40.732;-74.254;2022-08-24T10:20:07;1.08;;;0.40;;
56629;SDS011;42502;40.732;-74.254;2022-08-24T10:24:39;0.50;;;0.47;;
56629;SDS011;42502;40.732;-74.254;2022-08-24T10:29:31;0.47;;;0.40;;
56629;SDS011;42502;40.732;-74.254;2022-08-24T10:40:03;0.40;;;0.40;;
56629;SDS011;42502;40.732;-74.254;2022-08-24T10:44:56;1.48;;;0.50;;
56629;SDS011;42502;40.732;-74.254;2022-08-24T10:47:19;0.40;;;0.40;;
56629;SDS011;42502;40.732;-74.254;2022-08-24T10:53:48;0.45;;;0.40;;
56629;SDS011;42502;40.732;-74.254;2022-08-24T10:56:13;0.40;;;0.40;;
56629;SDS011;42502;40.732;-74.254;2022-08-24T11:00:20;0.40;;;0.40;;
56629;SDS011;42502;40.732;-74.254;2022-08-24T11:04:32;0.50;;;0.50;;
56629;SDS011;42502;40.732;-74.254;2022-08-24T11:06:35;0.43;;;0.43;;
56629;SDS011;42502;40.732;-74.254;2022-08-24T11:08:49;0.63;;;0.50;;
56629;SDS011;42502;40.732;-74.254;2022-08-24T11:11:09;0.40;;;0.40;;
56629;SDS011;42502;40.732;-74.254;2022-08-24T11:13:23;0.63;;;0.45;;
56629;SDS011;42502;40.732;-74.254;2022-08-24T11:15:26;0.70;;;0.52;;
56629;SDS011;42502;40.732;-74.254;2022-08-24T11:17:30;1.27;;;0.40;;
56629;SDS011;42502;40.732;-74.254;2022-08-24T11:19:34;0.60;;;0.38;;
56629;SDS011;42502;40.732;-74.254;2022-08-24T11:21:45;2.60;;;0.75;;
56629;SDS011;42502;40.732;-74.254;2022-08-24T11:23:49;2.05;;;0.55;;
56629;SDS011;42502;40.732;-74.254;2022-08-24T11:28:17;2.35;;;0.60;;
56629;SDS011;42502;40.732;-74.254;2022-08-24T11:30:25;1.25;;;0.52;;
56629;SDS011;42502;40.732;-74.254;2022-08-24T11:34:47;2.47;;;0.70;;
56629;SDS011;42502;40.732;-74.254;2022-08-24T11:36:48;2.78;;;0.77;;
56629;SDS011;42502;40.732;-74.254;2022-08-24T11:38:49;0.80;;;0.65;;
56629;SDS011;42502;40.732;-74.254;2022-08-24T11:41:15;1.42;;;0.75;;
56629;SDS011;42502;40.732;-74.254;2022-08-24T11:43:35;1.08;;;0.70;;
56629;SDS011;42502;40.732;-74.254;2022-08-24T11:45:43;2.97;;;0.93;;
56629;SDS011;42502;40.732;-74.254;2022-08-24T11:50:32;1.50;;;0.70;;
56629;SDS011;42502;40.732;-74.254;2022-08-24T11:57:37;0.90;;;0.70;;
56629;SDS011;42502;40.732;-74.254;2022-08-24T12:00:05;2.83;;;0.80;;
56629;SDS011;42502;40.732;-74.254;2022-08-24T12:04:40;1.45;;;0.80;;
56629;SDS011;42502;40.732;-74.254;2022-08-24T12:06:58;1.83;;;0.70;;
56629;SDS011;42502;40.732;-74.254;2022-08-24T12:11:43;1.23;;;0.70;;
56629;SDS011;42502;40.732;-74.254;2022-08-24T12:16:08;3.78;;;1.00;;
56629;SDS011;42502;40.732;-74.254;2022-08-24T12:20:47;0.85;;;0.77;;
56629;SDS011;42502;40.732;-74.254;2022-08-24T12:22:50;0.63;;;0.63;;
56629;SDS011;42502;40.732;-74.254;2022-08-24T12:24:57;2.13;;;0.82;;
56629;SDS011;42502;40.732;-74.254;2022-08-24T12:31:38;1.00;;;0.70;;
56629;SDS011;42502;40.732;-74.254;2022-08-24T12:33:39;0.95;;;0.85;;
56629;SDS011;42502;40.732;-74.254;2022-08-24T12:35:47;1.23;;;0.80;;
56629;SDS011;42502;40.732;-74.254;2022-08-24T12:37:56;1.02;;;0.80;;
56629;SDS011;42502;40.732;-74.254;2022-08-24T12:42:23;0.75;;;0.75;;
56629;SDS011;42502;40.732;-74.254;2022-08-24T12:44:44;1.38;;;0.82;;
56629;SDS011;42502;40.732;-74.254;2022-08-24T12:46:52;1.00;;;0.88;;
56629;SDS011;42502;40.732;-74.254;2022-08-24T12:49:02;1.30;;;0.75;;
56629;SDS011;42502;40.732;-74.254;2022-08-24T13:00:31;2.47;;;0.82;;
56629;SDS011;42502;40.732;-74.254;2022-08-24T13:02:39;1.23;;;0.85;;
56629;SDS011;42502;40.732;-74.254;2022-08-24T13:06:49;2.38;;;1.00;;
56629;SDS011;42502;40.732;-74.254;2022-08-24T13:11:33;2.17;;;1.00;;
56629;SDS011;42502;40.732;-74.254;2022-08-24T13:13:39;1.95;;;1.00;;
56629;SDS011;42502;40.732;-74.254;2022-08-24T13:17:48;1.80;;;0.90;;
56629;SDS011;42502;40.732;-74.254;2022-08-24T13:20:17;1.23;;;0.90;;
56629;SDS011;42502;40.732;-74.254;2022-08-24T13:26:32;1.95;;;1.10;;
56629;SDS011;42502;40.732;-74.254;2022-08-24T13:28:37;1.83;;;0.93;;
56629;SDS011;42502;40.732;-74.254;2022-08-24T13:33:17;3.10;;;1.10;;
56629;SDS011;42502;40.732;-74.254;2022-08-24T13:35:52;1.05;;;1.00;;
56629;SDS011;42502;40.732;-74.254;2022-08-24T13:40:34;2.00;;;1.00;;
56629;SDS011;42502;40.732;-74.254;2022-08-24T13:45:29;3.30;;;1.00;;
56629;SDS011;42502;40.732;-74.254;2022-08-24T13:47:48;2.55;;;1.23;;
56629;SDS011;42502;40.732;-74.254;2022-08-24T13:54:32;2.97;;;1.05;;
56629;SDS011;42502;40.732;-74.254;2022-08-24T13:59:10;1.70;;;1.17;;
56629;SDS011;42502;40.732;-74.254;2022-08-24T14:01:38;1.00;;;0.90;;
56629;SDS011;42502;40.732;-74.254;2022-08-24T14:08:58;1.30;;;1.20;;
56629;SDS011;42502;40.732;-74.254;2022-08-24T14:11:09;2.63;;;1.15;;
56629;SDS011;42502;40.732;-74.254;2022-08-24T14:15:45;3.15;;;1.10;;
56629;SDS011;42502;40.732;-74.254;2022-08-24T14:18:08;1.20;;;1.10;;
56629;SDS011;42502;40.732;-74.254;2022-08-24T14:25:21;1.15;;;1.10;;
56629;SDS011;42502;40.732;-74.254;2022-08-24T14:29:41;1.20;;;1.10;;
56629;SDS011;42502;40.732;-74.254;2022-08-24T14:39:03;8.43;;;1.45;;
56629;SDS011;42502;40.732;-74.254;2022-08-24T14:41:25;6.75;;;1.50;;
56629;SDS011;42502;40.732;-74.254;2022-08-24T14:53:08;5.32;;;1.30;;
56629;SDS011;42502;40.732;-74.254;2022-08-24T14:57:34;4.35;;;1.50;;
56629;SDS011;42502;40.732;-74.254;2022-08-24T15:04:42;5.00;;;1.30;;
56629;SDS011;42502;40.732;-74.254;2022-08-24T15:06:52;4.07;;;1.73;;
56629;SDS011;42502;40.732;-74.254;2022-08-24T15:09:31;9.07;;;1.40;;
56629;SDS011;42502;40.732;-74.254;2022-08-24T15:11:37;3.58;;;1.60;;
56629;SDS011;42502;40.732;-74.254;2022-08-24T15:13:47;2.95;;;1.30;;
56629;SDS011;42502;40.732;-74.254;2022-08-24T15:16:09;3.53;;;1.30;;
56629;SDS011;42502;40.732;-74.254;2022-08-24T15:20:19;4.43;;;1.77;;
56629;SDS011;42502;40.732;-74.254;2022-08-24T15:22:43;4.55;;;1.52;;
56629;SDS011;42502;40.732;-74.254;2022-08-24T15:25:09;9.20;;;1.55;;
56629;SDS011;42502;40.732;-74.254;2022-08-24T15:29:50;1.95;;;1.30;;
56629;SDS011;42502;40.732;-74.254;2022-08-24T15:32:14;4.93;;;1.30;;
56629;SDS011;42502;40.732;-74.254;2022-08-24T15:34:16;4.43;;;1.42;;
56629;SDS011;42502;40.732;-74.254;2022-08-24T15:36:31;1.90;;;1.20;;
56629;SDS011;42502;40.732;-74.254;2022-08-24T15:38:34;3.05;;;1.30;;
56629;SDS011;42502;40.732;-74.254;2022-08-24T15:40:36;2.72;;;1.20;;
56629;SDS011;42502;40.732;-74.254;2022-08-24T15:42:37;5.38;;;1.33;;
56629;SDS011;42502;40.732;-74.254;2022-08-24T15:44:38;1.50;;;1.40;;
56629;SDS011;42502;40.732;-74.254;2022-08-24T15:46:43;2.65;;;1.17;;
56629;SDS011;42502;40.732;-74.254;2022-08-24T15:48:48;3.03;;;1.35;;
56629;SDS011;42502;40.732;-74.254;2022-08-24T15:50:51;3.40;;;1.13;;
56629;SDS011;42502;40.732;-74.254;2022-08-24T15:55:39;7.72;;;1.60;;
56629;SDS011;42502;40.732;-74.254;2022-08-24T15:57:42;3.10;;;1.48;;
56629;SDS011;42502;40.732;-74.254;2022-08-24T15:59:48;4.20;;;1.08;;
56629;SDS011;42502;40.732;-74.254;2022-08-24T16:01:57;3.20;;;1.27;;
56629;SDS011;42502;40.732;-74.254;2022-08-24T16:04:37;3.13;;;1.17;;
56629;SDS011;42502;40.732;-74.254;2022-08-24T16:06:43;2.40;;;1.58;;
56629;SDS011;42502;40.732;-74.254;2022-08-24T16:09:00;1.70;;;1.27;;
56629;SDS011;42502;40.732;-74.254;2022-08-24T16:11:35;2.58;;;1.25;;
56629;SDS011;42502;40.732;-74.254;2022-08-24T16:13:41;2.75;;;1.33;;